createdAt,value
2018-03-27T00:02:07.211Z,37.05
2018-03-27T00:04:35.000Z,31.27
2018-03-27T00:07:02.857Z,37.40
2018-03-27T00:09:30.666Z,31.23
2018-03-27T00:11:58.467Z,34.35
2018-03-27T00:14:26.340Z,30.00
2018-03-27T00:16:54.127Z,27.92
2018-03-27T00:19:22.683Z,30.08
2018-03-27T00:21:50.552Z,31.37
2018-03-27T00:24:18.341Z,36.70
2018-03-27T00:26:58.881Z,31.40
2018-03-27T00:29:38.341Z,36.35
2018-03-27T00:32:17.867Z,30.58
2018-03-27T00:34:57.384Z,34.15
2018-03-27T00:37:37.070Z,33.70
2018-03-27T00:40:16.620Z,36.40
2018-03-27T00:43:01.791Z,34.85
2018-03-27T00:45:29.592Z,37.92
2018-03-27T00:47:57.388Z,33.25
2018-03-27T00:50:26.014Z,37.33
2018-03-27T00:52:53.816Z,36.50
2018-03-27T00:55:21.603Z,40.33
2018-03-27T00:57:50.222Z,35.03
2018-03-27T01:00:18.019Z,44.45
2018-03-27T01:02:45.824Z,38.42
2018-03-27T01:05:13.676Z,32.80
2018-03-27T01:07:41.482Z,37.40
2018-03-27T01:10:09.272Z,37.40
2018-03-27T01:12:37.137Z,38.83
2018-03-27T01:15:04.941Z,36.83
2018-03-27T01:17:32.746Z,35.95
2018-03-27T01:20:00.620Z,40.35
2018-03-27T01:22:28.424Z,40.28
2018-03-27T01:24:56.216Z,40.97
2018-03-27T01:27:24.069Z,41.37
2018-03-27T01:29:51.861Z,35.45
2018-03-27T01:32:19.652Z,37.03
2018-03-27T01:34:48.280Z,34.78
2018-03-27T01:37:16.073Z,36.22
2018-03-27T01:39:43.812Z,40.70
2018-03-27T01:42:11.626Z,44.60
2018-03-27T01:44:40.166Z,38.63
2018-03-27T01:47:07.905Z,51.20
2018-03-27T01:49:35.707Z,39.92
2018-03-27T01:52:03.457Z,36.92
2018-03-27T01:54:31.201Z,36.15
2018-03-27T01:56:59.004Z,31.60
2018-03-27T01:59:26.798Z,36.13
2018-03-27T02:01:54.554Z,34.88
2018-03-27T02:04:22.349Z,47.70
2018-03-27T02:06:50.103Z,45.47
2018-03-27T02:09:17.855Z,39.75
2018-03-27T02:11:51.313Z,32.70
2018-03-27T02:14:25.353Z,35.83
2018-03-27T02:16:58.683Z,34.78
2018-03-27T02:19:31.962Z,45.42
2018-03-27T02:21:59.261Z,36.00
2018-03-27T02:24:27.769Z,36.30
2018-03-27T02:26:55.517Z,29.17
2018-03-27T02:29:23.317Z,34.80
2018-03-27T02:31:51.056Z,34.53
2018-03-27T02:34:18.803Z,32.35
2018-03-27T02:36:46.650Z,40.50
2018-03-27T02:39:14.403Z,33.03
2018-03-27T02:41:42.922Z,34.80
2018-03-27T02:44:10.731Z,31.10
2018-03-27T02:46:38.476Z,29.02
2018-03-27T02:49:06.225Z,31.85
2018-03-27T02:51:34.029Z,38.08
2018-03-27T02:54:01.798Z,31.12
2018-03-27T02:56:30.311Z,33.53
2018-03-27T02:58:58.133Z,41.67
2018-03-27T03:01:26.643Z,26.87
2018-03-27T03:03:54.399Z,31.50
2018-03-27T03:06:22.199Z,27.85
2018-03-27T03:08:49.954Z,39.05
2018-03-27T03:11:17.706Z,33.67
2018-03-27T03:13:45.501Z,38.90
2018-03-27T03:16:13.242Z,35.65
2018-03-27T03:18:41.000Z,28.35
2018-03-27T03:21:08.841Z,30.62
2018-03-27T03:23:36.586Z,36.33
2018-03-27T03:26:05.094Z,29.37
2018-03-27T03:28:32.880Z,29.80
2018-03-27T03:31:00.625Z,28.67
2018-03-27T03:33:28.375Z,30.73
2018-03-27T03:35:56.183Z,27.45
2018-03-27T03:38:23.933Z,35.55
2018-03-27T03:40:51.672Z,27.08
2018-03-27T03:43:19.481Z,32.40
2018-03-27T03:45:48.001Z,27.37
2018-03-27T03:48:15.747Z,28.58
2018-03-27T03:50:43.560Z,28.87
2018-03-27T03:53:11.308Z,24.67
2018-03-27T03:55:39.053Z,28.90
2018-03-27T03:58:07.025Z,31.65
2018-03-27T04:00:34.774Z,31.12
2018-03-27T04:03:02.575Z,28.60
2018-03-27T04:05:30.474Z,28.02
2018-03-27T04:07:59.001Z,26.67
2018-03-27T04:10:26.748Z,31.83
2018-03-27T04:12:54.545Z,30.40
2018-03-27T04:15:22.288Z,35.38
2018-03-27T04:17:50.050Z,27.33
2018-03-27T04:20:18.627Z,29.67
2018-03-27T04:22:46.384Z,29.58
2018-03-27T04:25:14.173Z,31.30
2018-03-27T04:27:41.979Z,33.10
2018-03-27T04:30:09.717Z,31.17
2018-03-27T04:32:37.489Z,26.67
2018-03-27T04:35:06.056Z,35.88
2018-03-27T04:37:33.800Z,30.33
2018-03-27T04:40:01.555Z,34.05
2018-03-27T04:42:29.353Z,30.90
2018-03-27T04:44:57.861Z,25.65
2018-03-27T04:47:25.608Z,38.58
2018-03-27T04:49:53.435Z,33.47
2018-03-27T04:52:21.185Z,36.30
2018-03-27T04:54:48.920Z,31.10
2018-03-27T04:57:16.721Z,32.22
2018-03-27T04:59:44.461Z,36.95
2018-03-27T05:02:12.207Z,35.10
2018-03-27T05:04:40.009Z,29.83
2018-03-27T05:07:07.758Z,34.22
2018-03-27T05:09:35.510Z,36.58
2018-03-27T05:12:03.329Z,30.73
2018-03-27T05:14:31.110Z,33.75
2018-03-27T05:16:58.846Z,34.92
2018-03-27T05:19:27.412Z,37.70
2018-03-27T05:21:55.152Z,32.30
2018-03-27T05:24:22.892Z,31.05
2018-03-27T05:26:50.774Z,30.15
2018-03-27T05:29:18.513Z,28.38
2018-03-27T05:31:46.258Z,23.45
2018-03-27T05:34:14.066Z,25.37
2018-03-27T05:36:41.805Z,24.12
2018-03-27T05:39:09.562Z,20.27
2018-03-27T05:41:37.361Z,23.30
2018-03-27T05:44:05.129Z,20.95
2018-03-27T05:46:33.555Z,22.27
2018-03-27T05:49:01.363Z,19.27
2018-03-27T05:51:29.116Z,22.55
2018-03-27T05:53:56.857Z,14.73
2018-03-27T05:56:24.659Z,19.55
2018-03-27T05:58:52.406Z,22.05
2018-03-27T06:01:20.154Z,21.45
2018-03-27T06:03:47.957Z,18.65
2018-03-27T06:06:15.718Z,18.77
2018-03-27T06:08:44.231Z,25.45
2018-03-27T06:11:12.027Z,16.50
2018-03-27T06:13:39.825Z,17.77
2018-03-27T06:16:08.498Z,15.27
2018-03-27T06:18:37.067Z,14.27
2018-03-27T06:21:04.892Z,14.52
2018-03-27T06:23:32.637Z,19.27
2018-03-27T06:26:00.442Z,16.65
2018-03-27T06:28:28.192Z,13.85
2018-03-27T06:30:56.696Z,20.70
2018-03-27T06:33:24.499Z,17.60
2018-03-27T06:35:52.257Z,19.83
2018-03-27T06:38:20.002Z,13.07
2018-03-27T06:40:48.592Z,17.30
2018-03-27T06:43:16.350Z,14.57
2018-03-27T06:45:44.865Z,20.70
2018-03-27T06:48:12.673Z,15.43
2018-03-27T06:50:40.419Z,20.90
2018-03-27T06:53:08.172Z,10.77
2018-03-27T06:55:35.962Z,12.43
2018-03-27T06:58:04.478Z,17.85
2018-03-27T07:00:32.231Z,11.75
2018-03-27T07:03:00.049Z,10.25
2018-03-27T07:05:27.809Z,12.98
2018-03-27T07:07:55.561Z,10.93
2018-03-27T07:10:23.357Z,9.40
2018-03-27T07:12:51.883Z,18.85
2018-03-27T07:15:19.627Z,12.40
2018-03-27T07:17:47.426Z,10.93
2018-03-27T07:20:15.181Z,8.68
2018-03-27T07:22:42.918Z,9.73
2018-03-27T07:25:10.724Z,9.25
2018-03-27T07:27:38.491Z,13.38
2018-03-27T07:30:06.233Z,10.10
2018-03-27T07:32:34.038Z,17.20
2018-03-27T07:35:02.542Z,10.20
2018-03-27T07:37:30.287Z,10.73
2018-03-27T07:39:58.081Z,12.60
2018-03-27T07:42:25.822Z,10.27
2018-03-27T07:44:53.570Z,12.98
2018-03-27T07:47:21.388Z,12.68
2018-03-27T07:49:49.161Z,14.82
2018-03-27T07:52:16.907Z,24.27
2018-03-27T07:54:44.748Z,13.38
2018-03-27T07:57:12.497Z,10.38
2018-03-27T07:59:40.259Z,12.48
2018-03-27T08:02:08.044Z,11.80
2018-03-27T08:04:35.797Z,13.60
2018-03-27T08:07:03.554Z,11.88
2018-03-27T08:09:31.352Z,10.35
2018-03-27T08:11:59.092Z,13.40
2018-03-27T08:14:26.849Z,12.80
2018-03-27T08:16:54.641Z,13.50
2018-03-27T08:19:22.383Z,13.88
2018-03-27T08:21:50.142Z,11.38
2018-03-27T08:24:18.021Z,9.63
2018-03-27T08:26:45.746Z,10.70
2018-03-27T08:29:13.480Z,6.43
2018-03-27T08:31:42.036Z,7.40
2018-03-27T08:34:09.774Z,8.25
2018-03-27T08:36:37.529Z,7.93
2018-03-27T08:39:05.403Z,7.57
2018-03-27T08:41:33.142Z,5.30
2018-03-27T08:44:00.885Z,8.10
2018-03-27T08:46:28.703Z,7.72
2018-03-27T08:48:56.501Z,8.30
2018-03-27T08:51:25.010Z,4.87
2018-03-27T08:53:52.804Z,5.82
2018-03-27T08:56:20.544Z,7.18
2018-03-27T08:58:48.281Z,5.57
2018-03-27T09:01:16.073Z,7.62
2018-03-27T09:03:43.832Z,6.93
2018-03-27T09:06:11.580Z,6.93
2018-03-27T09:08:39.386Z,11.52
2018-03-27T09:11:07.137Z,6.60
2018-03-27T09:13:34.875Z,8.10
2018-03-27T09:16:02.726Z,8.38
2018-03-27T09:18:30.469Z,7.93
2018-03-27T09:20:58.210Z,6.87
2018-03-27T09:23:26.106Z,8.10
2018-03-27T09:25:53.905Z,9.40
2018-03-27T09:28:22.410Z,7.20
2018-03-27T09:30:51.792Z,11.07
2018-03-27T09:33:19.553Z,8.93
2018-03-27T09:35:47.305Z,11.07
2018-03-27T09:38:15.207Z,14.70
2018-03-27T09:40:43.708Z,9.10
2018-03-27T09:43:11.450Z,14.80
2018-03-27T09:45:40.008Z,11.48
2018-03-27T09:48:07.786Z,9.95
2018-03-27T09:50:36.322Z,10.50
2018-03-27T09:53:04.511Z,8.60
2018-03-27T09:55:32.275Z,9.43
2018-03-27T09:58:00.036Z,8.52
2018-03-27T10:00:33.505Z,8.27
2018-03-27T10:03:01.356Z,5.47
2018-03-27T10:05:29.121Z,5.75
2018-03-27T10:07:56.950Z,5.10
2018-03-27T10:10:25.454Z,8.98
2018-03-27T10:12:53.195Z,9.30
2018-03-27T10:15:21.783Z,9.07
2018-03-27T10:17:49.525Z,5.30
2018-03-27T10:20:18.031Z,7.10
2018-03-27T10:22:45.825Z,8.82
2018-03-27T10:25:13.577Z,7.80
2018-03-27T10:27:41.341Z,5.62
2018-03-27T10:30:09.172Z,11.60
2018-03-27T10:32:36.938Z,4.65
2018-03-27T10:35:04.713Z,5.95
2018-03-27T10:37:32.534Z,5.30
2018-03-27T10:40:00.289Z,6.03
2018-03-27T10:42:28.039Z,6.07
2018-03-27T10:44:55.836Z,11.57
2018-03-27T10:47:24.411Z,9.95
2018-03-27T10:49:53.215Z,6.40
2018-03-27T10:52:21.022Z,9.27
2018-03-27T10:54:48.775Z,9.45
2018-03-27T10:57:16.533Z,7.82
2018-03-27T10:59:44.334Z,8.05
2018-03-27T11:02:12.085Z,9.52
2018-03-27T11:04:39.834Z,10.63
2018-03-27T11:07:08.417Z,7.97
2018-03-27T11:09:36.175Z,9.35
2018-03-27T11:12:04.686Z,7.95
2018-03-27T11:14:33.245Z,4.68
2018-03-27T11:17:00.990Z,7.62
2018-03-27T11:19:28.730Z,8.15
2018-03-27T11:21:56.531Z,7.82
2018-03-27T11:24:24.277Z,7.53
2018-03-27T11:26:52.018Z,4.28
2018-03-27T11:29:19.840Z,5.95
2018-03-27T11:31:48.349Z,8.07
2018-03-27T11:34:16.098Z,7.97
2018-03-27T11:36:43.917Z,7.35
2018-03-27T11:39:11.658Z,5.90
2018-03-27T11:41:39.402Z,7.15
2018-03-27T11:44:07.210Z,7.40
2018-03-27T11:46:34.955Z,5.65
2018-03-27T11:49:02.708Z,4.28
2018-03-27T11:51:30.499Z,7.00
2018-03-27T11:53:58.245Z,6.12
2018-03-27T11:56:26.009Z,6.72
2018-03-27T11:58:53.796Z,4.62
2018-03-27T12:01:21.537Z,7.40
2018-03-27T12:03:49.299Z,6.28
2018-03-27T12:06:17.196Z,6.12
2018-03-27T12:08:45.692Z,5.07
2018-03-27T12:11:13.417Z,5.97
2018-03-27T12:13:41.208Z,7.10
2018-03-27T12:16:08.943Z,9.40
2018-03-27T12:18:36.678Z,5.43
2018-03-27T12:21:04.504Z,6.55
2018-03-27T12:23:32.252Z,7.90
2018-03-27T12:25:59.993Z,8.18
2018-03-27T12:28:27.785Z,12.37
2018-03-27T12:30:55.529Z,12.55
2018-03-27T12:33:24.029Z,10.88
2018-03-27T12:35:51.835Z,6.18
2018-03-27T12:38:20.346Z,6.87
2018-03-27T12:40:48.850Z,10.95
2018-03-27T12:43:16.641Z,15.00
2018-03-27T12:45:44.370Z,13.15
2018-03-27T12:48:12.104Z,10.55
2018-03-27T12:50:40.654Z,12.20
2018-03-27T12:53:08.384Z,6.40
2018-03-27T12:55:36.112Z,7.60
2018-03-27T12:58:04.705Z,5.75
2018-03-27T13:00:33.204Z,5.05
2018-03-27T13:03:00.937Z,6.12
2018-03-27T13:05:29.480Z,9.02
2018-03-27T13:07:57.221Z,5.45
2018-03-27T13:10:24.970Z,9.20
2018-03-27T13:12:52.755Z,5.12
2018-03-27T13:15:20.480Z,5.47
2018-03-27T13:17:48.217Z,5.75
2018-03-27T13:20:16.765Z,5.53
2018-03-27T13:22:44.496Z,5.18
2018-03-27T13:25:12.236Z,8.93
2018-03-27T13:27:40.026Z,6.32
2018-03-27T13:30:07.755Z,5.15
2018-03-27T13:32:35.517Z,6.78
2018-03-27T13:35:04.109Z,5.47
2018-03-27T13:37:31.885Z,5.45
2018-03-27T13:39:59.621Z,5.47
2018-03-27T13:42:28.178Z,6.32
2018-03-27T13:44:55.936Z,6.37
2018-03-27T13:47:23.671Z,6.45
2018-03-27T13:49:51.488Z,9.35
2018-03-27T13:52:19.271Z,5.78
2018-03-27T13:54:47.036Z,8.68
2018-03-27T13:57:14.816Z,7.07
2018-03-27T13:59:42.545Z,7.65
2018-03-27T14:02:10.334Z,6.47
2018-03-27T14:04:38.116Z,10.23
2018-03-27T14:07:05.873Z,5.80
2018-03-27T14:09:33.912Z,9.50
2018-03-27T14:12:01.908Z,7.40
2018-03-27T14:14:29.641Z,6.50
2018-03-27T14:16:57.381Z,7.87
2018-03-27T14:19:25.224Z,7.80
2018-03-27T14:21:52.995Z,7.05
2018-03-27T14:24:21.506Z,13.73
2018-03-27T14:26:49.305Z,5.93
2018-03-27T14:29:17.038Z,8.40
2018-03-27T14:31:44.798Z,10.05
2018-03-27T14:34:12.592Z,6.87
2018-03-27T14:36:40.346Z,8.38
2018-03-27T14:39:08.085Z,7.70
2018-03-27T14:41:35.888Z,11.32
2018-03-27T14:44:03.857Z,8.38
2018-03-27T14:46:31.599Z,9.40
2018-03-27T14:48:59.390Z,13.68
2018-03-27T14:51:27.131Z,9.27
2018-03-27T14:53:54.919Z,8.02
2018-03-27T14:56:23.513Z,10.88
2018-03-27T14:58:52.023Z,14.32
2018-03-27T15:01:19.777Z,13.60
2018-03-27T15:03:47.572Z,12.10
2018-03-27T15:06:15.328Z,11.60
2018-03-27T15:08:43.077Z,9.40
2018-03-27T15:11:10.876Z,10.75
2018-03-27T15:13:38.628Z,9.93
2018-03-27T15:16:06.383Z,13.52
2018-03-27T15:18:34.173Z,9.13
2018-03-27T15:21:02.678Z,15.93
2018-03-27T15:23:30.421Z,12.80
2018-03-27T15:25:59.017Z,21.12
2018-03-27T15:28:26.785Z,19.58
2018-03-27T15:30:54.542Z,20.60
2018-03-27T15:33:22.354Z,26.00
2018-03-27T15:35:50.110Z,20.58
2018-03-27T15:38:26.490Z,18.80
2018-03-27T15:40:54.950Z,16.83
2018-03-27T15:43:22.699Z,18.23
2018-03-27T15:45:50.507Z,20.67
2018-03-27T15:48:19.020Z,21.40
2018-03-27T15:50:46.769Z,18.27
2018-03-27T15:53:14.577Z,19.87
2018-03-27T15:55:42.329Z,17.73
2018-03-27T15:58:10.087Z,26.05
2018-03-27T16:00:37.890Z,16.48
2018-03-27T16:03:05.655Z,19.52
2018-03-27T16:05:33.406Z,18.42
2018-03-27T16:08:01.202Z,18.40
2018-03-27T16:10:28.954Z,19.67
2018-03-27T16:12:57.464Z,17.20
2018-03-27T16:15:25.277Z,20.75
2018-03-27T16:17:53.031Z,23.98
2018-03-27T16:20:20.781Z,17.35
2018-03-27T16:22:48.598Z,19.92
2018-03-27T16:25:16.341Z,22.42
2018-03-27T16:27:44.869Z,21.62
2018-03-27T16:30:12.670Z,24.25
2018-03-27T16:32:40.413Z,25.33
2018-03-27T16:35:08.157Z,19.80
2018-03-27T16:37:35.964Z,16.30
2018-03-27T16:40:04.500Z,15.80
2018-03-27T16:42:32.276Z,20.62
2018-03-27T16:45:00.083Z,28.90
2018-03-27T16:47:27.836Z,21.40
2018-03-27T16:49:56.349Z,28.70
2018-03-27T16:52:24.163Z,19.70
2018-03-27T16:54:53.055Z,26.52
2018-03-27T16:57:21.621Z,23.05
2018-03-27T16:59:49.426Z,23.85
2018-03-27T17:02:17.179Z,25.05
2018-03-27T17:04:44.942Z,20.60
2018-03-27T17:07:13.506Z,33.58
2018-03-27T17:09:42.063Z,27.17
2018-03-27T17:12:09.814Z,26.87
2018-03-27T17:14:37.624Z,23.65
2018-03-27T17:17:05.397Z,36.22
2018-03-27T17:19:33.182Z,27.00
2018-03-27T17:22:01.059Z,24.30
2018-03-27T17:24:28.843Z,23.98
2018-03-27T17:26:56.630Z,24.63
2018-03-27T17:29:25.246Z,30.85
2018-03-27T17:31:53.027Z,27.55
2018-03-27T17:34:20.789Z,26.65
2018-03-27T17:36:50.249Z,28.35
2018-03-27T17:39:18.045Z,32.25
2018-03-27T17:41:45.798Z,24.42
2018-03-27T17:44:13.692Z,24.45
2018-03-27T17:46:41.524Z,29.45
2018-03-27T17:49:09.406Z,26.95
2018-03-27T17:51:37.207Z,27.83
2018-03-27T17:54:04.990Z,29.85
2018-03-27T17:56:32.763Z,22.37
2018-03-27T17:59:00.579Z,20.37
2018-03-27T18:01:28.325Z,25.20
2018-03-27T18:03:56.073Z,24.25
2018-03-27T18:06:23.896Z,24.25
2018-03-27T18:08:52.429Z,24.37
2018-03-27T18:11:20.198Z,27.80
2018-03-27T18:13:48.015Z,24.73
2018-03-27T18:16:15.923Z,31.05
2018-03-27T18:18:43.697Z,25.65
2018-03-27T18:21:11.502Z,28.87
2018-03-27T18:23:39.253Z,33.47
2018-03-27T18:26:07.768Z,29.15
2018-03-27T18:28:35.569Z,24.23
2018-03-27T18:31:03.356Z,32.55
2018-03-27T18:33:31.877Z,30.00
2018-03-27T18:35:59.709Z,42.83
2018-03-27T18:38:27.464Z,32.72
2018-03-27T18:40:55.230Z,32.85
2018-03-27T18:43:23.039Z,34.03
2018-03-27T18:45:50.819Z,36.00
2018-03-27T18:48:18.588Z,31.90
2018-03-27T18:50:46.865Z,33.28
2018-03-27T18:53:15.393Z,27.90
2018-03-27T18:55:43.137Z,27.62
2018-03-27T18:58:10.979Z,33.38
2018-03-27T19:00:39.521Z,27.60
2018-03-27T19:03:07.274Z,24.30
2018-03-27T19:05:35.070Z,29.20
2018-03-27T19:08:02.817Z,26.12
2018-03-27T19:10:30.602Z,29.55
2018-03-27T19:12:59.174Z,27.35
2018-03-27T19:15:26.924Z,24.58
2018-03-27T19:17:54.676Z,28.23
2018-03-27T19:20:22.482Z,31.02
2018-03-27T19:22:50.251Z,28.70
2018-03-27T19:25:17.990Z,29.30
2018-03-27T19:27:46.678Z,39.92
2018-03-27T19:30:15.209Z,38.58
2018-03-27T19:32:42.971Z,35.22
2018-03-27T19:35:10.798Z,38.00
2018-03-27T19:37:38.543Z,35.92
2018-03-27T19:40:07.054Z,40.60
2018-03-27T19:42:34.879Z,41.22
2018-03-27T19:45:03.485Z,36.47
2018-03-27T19:47:31.268Z,42.80
2018-03-27T19:49:59.066Z,37.78
2018-03-27T19:52:26.834Z,41.50
2018-03-27T19:54:54.594Z,46.35
2018-03-27T19:57:22.390Z,50.78
2018-03-27T19:59:50.946Z,47.33
2018-03-27T20:02:19.595Z,45.08
2018-03-27T20:04:47.412Z,42.75
2018-03-27T20:07:15.939Z,52.33
2018-03-27T20:09:43.738Z,47.58
2018-03-27T20:12:12.321Z,50.03
2018-03-27T20:14:40.844Z,46.30
2018-03-27T20:17:08.613Z,44.70
2018-03-27T20:19:36.439Z,46.08
2018-03-27T20:22:04.957Z,44.05
2018-03-27T20:24:32.726Z,48.40
2018-03-27T20:27:00.528Z,41.42
2018-03-27T20:29:28.274Z,49.67
2018-03-27T20:31:56.029Z,38.03
2018-03-27T20:34:23.853Z,50.65
2018-03-27T20:36:51.632Z,45.58
2018-03-27T20:39:20.235Z,47.42
2018-03-27T20:41:48.051Z,44.90
2018-03-27T20:44:15.812Z,48.75
2018-03-27T20:46:43.825Z,49.95
2018-03-27T20:49:11.667Z,46.75
2018-03-27T20:51:39.465Z,46.08
2018-03-27T20:54:07.214Z,46.45
2018-03-27T20:56:35.568Z,51.20
2018-03-27T20:59:03.417Z,50.97
2018-03-27T21:01:33.211Z,57.40
2018-03-27T21:04:01.348Z,62.58
2018-03-27T21:06:29.098Z,51.67
2018-03-27T21:11:33.506Z,52.03
2018-03-27T21:14:01.303Z,59.40
2018-03-27T21:16:29.061Z,59.58
2018-03-27T21:18:56.894Z,62.28
2018-03-27T21:21:24.680Z,50.88
2018-03-27T21:23:52.455Z,62.42
2018-03-27T21:26:20.270Z,75.45
2018-03-27T21:28:48.025Z,64.32
2018-03-27T21:31:15.803Z,62.22
2018-03-27T21:33:43.654Z,60.08
2018-03-27T21:36:11.416Z,67.80
2018-03-27T21:38:39.181Z,59.67
2018-03-27T21:41:07.024Z,62.13
2018-03-27T21:43:34.791Z,56.15
2018-03-27T21:46:02.552Z,68.47
2018-03-27T21:48:30.365Z,63.92
2018-03-27T21:50:58.124Z,66.82
2018-03-27T21:53:25.896Z,68.75
2018-03-27T21:55:53.705Z,60.55
2018-03-27T21:58:21.506Z,64.22
2018-03-27T22:00:49.267Z,67.65
2018-03-27T22:03:17.145Z,78.97
2018-03-27T22:05:44.916Z,85.97
2018-03-27T22:08:13.477Z,57.92
2018-03-27T22:10:41.287Z,63.05
2018-03-27T22:13:09.046Z,63.63
2018-03-27T22:15:36.801Z,58.85
2018-03-27T22:18:05.402Z,65.68
2018-03-27T22:20:33.150Z,61.78
2018-03-27T22:23:00.936Z,70.50
2018-03-27T22:25:28.746Z,55.50
2018-03-27T22:27:57.295Z,54.95
2018-03-27T22:30:25.073Z,60.10
2018-03-27T22:32:52.901Z,66.30
2018-03-27T22:35:20.655Z,62.97
2018-03-27T22:37:48.403Z,67.07
2018-03-27T22:40:16.272Z,74.87
2018-03-27T22:42:44.032Z,65.40
2018-03-27T22:45:11.783Z,61.80
2018-03-27T22:47:40.363Z,60.83
2018-03-27T22:50:08.911Z,63.20
2018-03-27T22:52:36.674Z,61.90
2018-03-27T22:55:04.485Z,67.53
2018-03-27T22:57:32.262Z,55.42
2018-03-27T23:00:00.084Z,72.22
2018-03-27T23:02:28.670Z,61.97
2018-03-27T23:04:57.193Z,59.92
2018-03-27T23:07:24.957Z,73.78
2018-03-27T23:09:52.765Z,64.72
2018-03-27T23:12:21.346Z,60.97
2018-03-27T23:14:49.901Z,69.15
2018-03-27T23:17:17.709Z,64.50
2018-03-27T23:19:46.249Z,65.75
2018-03-27T23:35:40.229Z,66.70
2018-03-27T23:38:08.743Z,72.70
2018-03-27T23:40:36.510Z,60.50
2018-03-27T23:43:04.328Z,64.93
2018-03-27T23:45:32.880Z,66.32
2018-03-27T23:48:00.630Z,71.43
2018-03-27T23:50:28.429Z,69.65
2018-03-27T23:52:56.186Z,68.70
2018-03-27T23:55:23.997Z,70.30
2018-03-27T23:57:51.799Z,75.18
